sensor_id;sensor_type;location;lat;lon;timestamp;temperature;humidity
10304;DHT22;5197;48.152;8.590;2024-03-08T00:00:17;1.60;18.50
10304;DHT22;5197;48.152;8.590;2024-03-08T00:02:46;1.50;18.30
10304;DHT22;5197;48.152;8.590;2024-03-08T00:05:14;1.50;18.30
10304;DHT22;5197;48.152;8.590;2024-03-08T00:07:41;1.00;17.80
10304;DHT22;5197;48.152;8.590;2024-03-08T00:10:10;1.50;18.20
10304;DHT22;5197;48.152;8.590;2024-03-08T00:12:45;1.50;18.10
10304;DHT22;5197;48.152;8.590;2024-03-08T00:15:17;1.50;18.10
10304;DHT22;5197;48.152;8.590;2024-03-08T00:17:46;1.40;18.00
10304;DHT22;5197;48.152;8.590;2024-03-08T00:20:14;1.40;18.00
10304;DHT22;5197;48.152;8.590;2024-03-08T00:22:42;1.30;18.20
10304;DHT22;5197;48.152;8.590;2024-03-08T00:25:09;1.30;18.30
10304;DHT22;5197;48.152;8.590;2024-03-08T00:27:37;1.30;18.30
10304;DHT22;5197;48.152;8.590;2024-03-08T00:30:06;1.20;18.40
10304;DHT22;5197;48.152;8.590;2024-03-08T00:32:33;1.30;18.50
10304;DHT22;5197;48.152;8.590;2024-03-08T00:35:00;1.20;18.40
10304;DHT22;5197;48.152;8.590;2024-03-08T00:37:28;1.20;18.50
10304;DHT22;5197;48.152;8.590;2024-03-08T00:39:55;1.20;18.60
10304;DHT22;5197;48.152;8.590;2024-03-08T00:42:21;1.10;18.50
10304;DHT22;5197;48.152;8.590;2024-03-08T00:44:48;1.00;18.50
10304;DHT22;5197;48.152;8.590;2024-03-08T00:47:18;1.00;18.50
10304;DHT22;5197;48.152;8.590;2024-03-08T00:49:46;1.00;18.80
10304;DHT22;5197;48.152;8.590;2024-03-08T00:52:13;1.00;19.10
10304;DHT22;5197;48.152;8.590;2024-03-08T00:54:40;1.00;19.10
10304;DHT22;5197;48.152;8.590;2024-03-08T00:57:10;0.90;19.20
10304;DHT22;5197;48.152;8.590;2024-03-08T00:59:40;0.90;19.20
10304;DHT22;5197;48.152;8.590;2024-03-08T01:02:07;0.90;19.10
10304;DHT22;5197;48.152;8.590;2024-03-08T01:04:35;0.90;19.00
10304;DHT22;5197;48.152;8.590;2024-03-08T01:07:02;0.80;18.80
10304;DHT22;5197;48.152;8.590;2024-03-08T01:09:29;0.80;19.10
10304;DHT22;5197;48.152;8.590;2024-03-08T01:11:56;0.70;19.10
10304;DHT22;5197;48.152;8.590;2024-03-08T01:14:24;0.80;19.40
10304;DHT22;5197;48.152;8.590;2024-03-08T01:16:52;0.70;19.20
10304;DHT22;5197;48.152;8.590;2024-03-08T01:19:19;0.70;19.20
10304;DHT22;5197;48.152;8.590;2024-03-08T01:21:46;0.70;19.10
10304;DHT22;5197;48.152;8.590;2024-03-08T01:24:13;0.60;19.10
10304;DHT22;5197;48.152;8.590;2024-03-08T01:26:40;0.60;19.20
10304;DHT22;5197;48.152;8.590;2024-03-08T01:29:07;0.60;19.20
10304;DHT22;5197;48.152;8.590;2024-03-08T01:31:34;0.60;19.30
10304;DHT22;5197;48.152;8.590;2024-03-08T01:34:03;0.60;19.50
10304;DHT22;5197;48.152;8.590;2024-03-08T01:36:30;0.60;19.60
10304;DHT22;5197;48.152;8.590;2024-03-08T01:38:57;0.50;19.50
10304;DHT22;5197;48.152;8.590;2024-03-08T01:41:24;0.60;19.70
10304;DHT22;5197;48.152;8.590;2024-03-08T01:43:51;0.50;19.70
10304;DHT22;5197;48.152;8.590;2024-03-08T01:46:21;0.50;19.70
10304;DHT22;5197;48.152;8.590;2024-03-08T01:48:49;0.50;19.80
10304;DHT22;5197;48.152;8.590;2024-03-08T01:51:18;0.50;19.90
10304;DHT22;5197;48.152;8.590;2024-03-08T01:53:46;0.50;20.00
10304;DHT22;5197;48.152;8.590;2024-03-08T01:56:14;0.60;20.30
10304;DHT22;5197;48.152;8.590;2024-03-08T01:58:42;0.60;20.40
10304;DHT22;5197;48.152;8.590;2024-03-08T02:01:14;0.60;20.60
10304;DHT22;5197;48.152;8.590;2024-03-08T02:03:42;0.60;20.60
10304;DHT22;5197;48.152;8.590;2024-03-08T02:06:44;0.60;20.60
10304;DHT22;5197;48.152;8.590;2024-03-08T02:09:11;0.70;20.50
10304;DHT22;5197;48.152;8.590;2024-03-08T02:11:41;0.70;20.70
10304;DHT22;5197;48.152;8.590;2024-03-08T02:14:08;0.70;20.70
10304;DHT22;5197;48.152;8.590;2024-03-08T02:16:36;0.70;21.80
10304;DHT22;5197;48.152;8.590;2024-03-08T02:19:03;0.80;20.90
10304;DHT22;5197;48.152;8.590;2024-03-08T02:21:29;0.80;21.00
10304;DHT22;5197;48.152;8.590;2024-03-08T02:23:57;0.80;21.00
10304;DHT22;5197;48.152;8.590;2024-03-08T02:26:24;0.80;21.10
10304;DHT22;5197;48.152;8.590;2024-03-08T02:28:51;0.80;21.30
10304;DHT22;5197;48.152;8.590;2024-03-08T02:31:18;0.90;21.30
10304;DHT22;5197;48.152;8.590;2024-03-08T02:33:45;0.90;21.30
10304;DHT22;5197;48.152;8.590;2024-03-08T02:36:14;0.90;21.50
10304;DHT22;5197;48.152;8.590;2024-03-08T02:38:41;0.90;21.50
10304;DHT22;5197;48.152;8.590;2024-03-08T02:41:08;0.90;21.60
10304;DHT22;5197;48.152;8.590;2024-03-08T02:43:35;0.90;21.70
10304;DHT22;5197;48.152;8.590;2024-03-08T02:46:02;1.00;21.90
10304;DHT22;5197;48.152;8.590;2024-03-08T02:48:29;1.00;22.00
10304;DHT22;5197;48.152;8.590;2024-03-08T02:50:57;1.00;22.20
10304;DHT22;5197;48.152;8.590;2024-03-08T02:53:24;1.00;22.20
10304;DHT22;5197;48.152;8.590;2024-03-08T02:55:51;1.00;22.40
10304;DHT22;5197;48.152;8.590;2024-03-08T02:58:18;1.00;22.60
10304;DHT22;5197;48.152;8.590;2024-03-08T03:00:45;1.10;22.70
10304;DHT22;5197;48.152;8.590;2024-03-08T03:03:12;1.10;22.70
10304;DHT22;5197;48.152;8.590;2024-03-08T03:05:39;1.10;22.80
10304;DHT22;5197;48.152;8.590;2024-03-08T03:08:13;1.20;22.90
10304;DHT22;5197;48.152;8.590;2024-03-08T03:10:40;1.20;23.00
10304;DHT22;5197;48.152;8.590;2024-03-08T03:13:06;1.20;23.00
10304;DHT22;5197;48.152;8.590;2024-03-08T03:15:35;1.30;23.10
10304;DHT22;5197;48.152;8.590;2024-03-08T03:18:04;1.20;23.20
10304;DHT22;5197;48.152;8.590;2024-03-08T03:20:32;1.30;23.10
10304;DHT22;5197;48.152;8.590;2024-03-08T03:23:00;1.30;23.20
10304;DHT22;5197;48.152;8.590;2024-03-08T03:25:30;1.30;23.30
10304;DHT22;5197;48.152;8.590;2024-03-08T03:28:02;1.30;23.30
10304;DHT22;5197;48.152;8.590;2024-03-08T03:30:30;1.30;23.50
10304;DHT22;5197;48.152;8.590;2024-03-08T03:33:00;1.30;23.60
10304;DHT22;5197;48.152;8.590;2024-03-08T03:35:28;1.30;23.50
10304;DHT22;5197;48.152;8.590;2024-03-08T03:37:58;1.30;23.60
10304;DHT22;5197;48.152;8.590;2024-03-08T03:40:37;1.30;23.60
10304;DHT22;5197;48.152;8.590;2024-03-08T03:43:04;1.40;23.70
10304;DHT22;5197;48.152;8.590;2024-03-08T03:45:31;1.40;24.00
10304;DHT22;5197;48.152;8.590;2024-03-08T03:48:05;1.40;23.90
10304;DHT22;5197;48.152;8.590;2024-03-08T03:50:37;1.40;23.90
10304;DHT22;5197;48.152;8.590;2024-03-08T03:53:05;1.40;23.80
10304;DHT22;5197;48.152;8.590;2024-03-08T03:55:36;1.40;23.60
10304;DHT22;5197;48.152;8.590;2024-03-08T03:58:07;1.40;23.90
10304;DHT22;5197;48.152;8.590;2024-03-08T04:00:34;1.40;23.90
10304;DHT22;5197;48.152;8.590;2024-03-08T04:03:01;1.40;24.10
10304;DHT22;5197;48.152;8.590;2024-03-08T04:05:28;1.50;24.00
10304;DHT22;5197;48.152;8.590;2024-03-08T04:07:55;1.50;23.90
10304;DHT22;5197;48.152;8.590;2024-03-08T04:10:23;1.40;23.60
10304;DHT22;5197;48.152;8.590;2024-03-08T04:12:50;1.40;23.80
10304;DHT22;5197;48.152;8.590;2024-03-08T04:15:17;1.40;24.00
10304;DHT22;5197;48.152;8.590;2024-03-08T04:17:44;1.40;24.10
10304;DHT22;5197;48.152;8.590;2024-03-08T04:20:13;1.40;24.30
10304;DHT22;5197;48.152;8.590;2024-03-08T04:22:42;1.50;24.20
10304;DHT22;5197;48.152;8.590;2024-03-08T04:25:11;1.50;24.00
10304;DHT22;5197;48.152;8.590;2024-03-08T04:27:38;1.50;24.00
10304;DHT22;5197;48.152;8.590;2024-03-08T04:30:05;1.50;24.20
10304;DHT22;5197;48.152;8.590;2024-03-08T04:32:35;1.50;24.10
10304;DHT22;5197;48.152;8.590;2024-03-08T04:35:02;1.50;24.20
10304;DHT22;5197;48.152;8.590;2024-03-08T04:37:30;1.60;24.10
10304;DHT22;5197;48.152;8.590;2024-03-08T04:39:58;1.60;24.10
10304;DHT22;5197;48.152;8.590;2024-03-08T04:42:26;2.60;24.50
10304;DHT22;5197;48.152;8.590;2024-03-08T04:44:53;1.50;23.60
10304;DHT22;5197;48.152;8.590;2024-03-08T04:47:20;1.50;23.90
10304;DHT22;5197;48.152;8.590;2024-03-08T04:49:48;1.60;24.00
10304;DHT22;5197;48.152;8.590;2024-03-08T04:52:15;1.60;24.00
10304;DHT22;5197;48.152;8.590;2024-03-08T04:54:43;1.60;23.70
10304;DHT22;5197;48.152;8.590;2024-03-08T04:57:11;1.60;24.00
10304;DHT22;5197;48.152;8.590;2024-03-08T04:59:38;1.60;23.90
10304;DHT22;5197;48.152;8.590;2024-03-08T05:02:05;1.50;23.60
10304;DHT22;5197;48.152;8.590;2024-03-08T05:04:34;1.50;23.40
10304;DHT22;5197;48.152;8.590;2024-03-08T05:07:01;1.40;23.70
10304;DHT22;5197;48.152;8.590;2024-03-08T05:09:28;1.40;24.00
10304;DHT22;5197;48.152;8.590;2024-03-08T05:11:55;1.50;24.30
10304;DHT22;5197;48.152;8.590;2024-03-08T05:14:25;1.50;24.50
10304;DHT22;5197;48.152;8.590;2024-03-08T05:16:52;1.50;24.30
10304;DHT22;5197;48.152;8.590;2024-03-08T05:19:20;1.50;24.40
10304;DHT22;5197;48.152;8.590;2024-03-08T05:21:48;1.60;24.20
10304;DHT22;5197;48.152;8.590;2024-03-08T05:24:16;1.50;23.80
10304;DHT22;5197;48.152;8.590;2024-03-08T05:26:44;1.60;23.60
10304;DHT22;5197;48.152;8.590;2024-03-08T05:29:11;1.50;23.70
10304;DHT22;5197;48.152;8.590;2024-03-08T05:31:49;1.50;23.80
10304;DHT22;5197;48.152;8.590;2024-03-08T05:34:41;1.50;23.30
10304;DHT22;5197;48.152;8.590;2024-03-08T05:37:08;1.50;23.70
10304;DHT22;5197;48.152;8.590;2024-03-08T05:39:34;1.50;23.90
10304;DHT22;5197;48.152;8.590;2024-03-08T05:42:01;1.50;24.00
10304;DHT22;5197;48.152;8.590;2024-03-08T05:44:28;1.50;24.20
10304;DHT22;5197;48.152;8.590;2024-03-08T05:46:57;1.50;24.50
10304;DHT22;5197;48.152;8.590;2024-03-08T05:49:24;1.50;24.60
10304;DHT22;5197;48.152;8.590;2024-03-08T05:51:51;1.60;24.60
10304;DHT22;5197;48.152;8.590;2024-03-08T05:54:18;1.60;24.70
10304;DHT22;5197;48.152;8.590;2024-03-08T05:56:49;1.50;24.60
10304;DHT22;5197;48.152;8.590;2024-03-08T05:59:19;1.60;25.70
10304;DHT22;5197;48.152;8.590;2024-03-08T06:01:46;1.60;24.60
10304;DHT22;5197;48.152;8.590;2024-03-08T06:04:13;1.50;24.50
10304;DHT22;5197;48.152;8.590;2024-03-08T06:06:41;1.60;24.50
10304;DHT22;5197;48.152;8.590;2024-03-08T06:09:08;1.60;24.60
10304;DHT22;5197;48.152;8.590;2024-03-08T06:11:42;1.60;24.60
10304;DHT22;5197;48.152;8.590;2024-03-08T06:14:09;1.60;24.70
10304;DHT22;5197;48.152;8.590;2024-03-08T06:16:36;1.50;24.80
10304;DHT22;5197;48.152;8.590;2024-03-08T06:19:04;1.60;24.80
10304;DHT22;5197;48.152;8.590;2024-03-08T06:21:32;1.60;24.80
10304;DHT22;5197;48.152;8.590;2024-03-08T06:23:59;1.60;25.00
10304;DHT22;5197;48.152;8.590;2024-03-08T06:26:26;1.50;25.00
10304;DHT22;5197;48.152;8.590;2024-03-08T06:28:58;1.60;25.20
10304;DHT22;5197;48.152;8.590;2024-03-08T06:31:25;1.60;25.50
10304;DHT22;5197;48.152;8.590;2024-03-08T06:33:52;1.20;25.10
10304;DHT22;5197;48.152;8.590;2024-03-08T06:36:22;1.60;25.20
10304;DHT22;5197;48.152;8.590;2024-03-08T06:38:49;1.60;25.50
10304;DHT22;5197;48.152;8.590;2024-03-08T06:41:16;1.50;25.00
10304;DHT22;5197;48.152;8.590;2024-03-08T06:43:44;1.50;25.20
10304;DHT22;5197;48.152;8.590;2024-03-08T06:46:12;1.50;25.70
10304;DHT22;5197;48.152;8.590;2024-03-08T06:48:39;1.50;26.00
10304;DHT22;5197;48.152;8.590;2024-03-08T06:51:07;1.50;26.10
10304;DHT22;5197;48.152;8.590;2024-03-08T06:53:34;1.50;26.10
10304;DHT22;5197;48.152;8.590;2024-03-08T06:56:05;1.60;26.30
10304;DHT22;5197;48.152;8.590;2024-03-08T06:58:33;1.50;26.60
10304;DHT22;5197;48.152;8.590;2024-03-08T07:01:00;1.50;26.30
10304;DHT22;5197;48.152;8.590;2024-03-08T07:03:30;1.60;27.60
10304;DHT22;5197;48.152;8.590;2024-03-08T07:05:59;1.60;26.40
10304;DHT22;5197;48.152;8.590;2024-03-08T07:08:26;1.60;26.30
10304;DHT22;5197;48.152;8.590;2024-03-08T07:10:54;1.60;26.10
10304;DHT22;5197;48.152;8.590;2024-03-08T07:13:21;1.60;26.30
10304;DHT22;5197;48.152;8.590;2024-03-08T07:15:48;1.70;26.60
10304;DHT22;5197;48.152;8.590;2024-03-08T07:18:15;1.60;26.70
10304;DHT22;5197;48.152;8.590;2024-03-08T07:20:42;1.70;26.70
10304;DHT22;5197;48.152;8.590;2024-03-08T07:23:10;1.70;26.50
10304;DHT22;5197;48.152;8.590;2024-03-08T07:25:37;1.70;26.80
10304;DHT22;5197;48.152;8.590;2024-03-08T07:28:06;1.80;26.50
10304;DHT22;5197;48.152;8.590;2024-03-08T07:30:38;1.80;26.10
10304;DHT22;5197;48.152;8.590;2024-03-08T07:33:12;1.70;26.00
10304;DHT22;5197;48.152;8.590;2024-03-08T07:35:40;1.70;26.30
10304;DHT22;5197;48.152;8.590;2024-03-08T07:38:08;1.80;26.50
10304;DHT22;5197;48.152;8.590;2024-03-08T07:40:38;1.80;26.40
10304;DHT22;5197;48.152;8.590;2024-03-08T07:43:08;1.80;25.50
10304;DHT22;5197;48.152;8.590;2024-03-08T07:45:35;1.80;25.70
10304;DHT22;5197;48.152;8.590;2024-03-08T07:48:03;1.80;25.70
10304;DHT22;5197;48.152;8.590;2024-03-08T07:50:30;1.80;26.30
10304;DHT22;5197;48.152;8.590;2024-03-08T07:52:59;1.90;26.20
10304;DHT22;5197;48.152;8.590;2024-03-08T07:55:28;1.80;26.00
10304;DHT22;5197;48.152;8.590;2024-03-08T07:57:55;1.90;25.80
10304;DHT22;5197;48.152;8.590;2024-03-08T08:00:22;1.90;26.00
10304;DHT22;5197;48.152;8.590;2024-03-08T08:02:50;1.90;26.00
10304;DHT22;5197;48.152;8.590;2024-03-08T08:05:17;2.00;25.60
10304;DHT22;5197;48.152;8.590;2024-03-08T08:07:45;2.00;24.90
10304;DHT22;5197;48.152;8.590;2024-03-08T08:10:16;2.00;24.80
10304;DHT22;5197;48.152;8.590;2024-03-08T08:12:48;2.00;24.60
10304;DHT22;5197;48.152;8.590;2024-03-08T08:15:15;2.00;24.80
10304;DHT22;5197;48.152;8.590;2024-03-08T08:17:46;2.10;24.90
10304;DHT22;5197;48.152;8.590;2024-03-08T08:20:14;2.10;24.30
10304;DHT22;5197;48.152;8.590;2024-03-08T08:22:42;3.30;25.10
10304;DHT22;5197;48.152;8.590;2024-03-08T08:25:35;2.00;24.20
10304;DHT22;5197;48.152;8.590;2024-03-08T08:28:27;2.10;24.50
10304;DHT22;5197;48.152;8.590;2024-03-08T08:30:54;2.00;24.70
10304;DHT22;5197;48.152;8.590;2024-03-08T08:33:21;2.10;25.00
10304;DHT22;5197;48.152;8.590;2024-03-08T08:35:48;2.10;25.30
10304;DHT22;5197;48.152;8.590;2024-03-08T08:38:15;2.10;26.50
10304;DHT22;5197;48.152;8.590;2024-03-08T08:40:42;2.10;25.50
10304;DHT22;5197;48.152;8.590;2024-03-08T08:43:09;2.20;24.70
10304;DHT22;5197;48.152;8.590;2024-03-08T08:45:36;2.20;24.60
10304;DHT22;5197;48.152;8.590;2024-03-08T08:48:06;2.20;24.90
10304;DHT22;5197;48.152;8.590;2024-03-08T08:50:33;2.30;24.70
10304;DHT22;5197;48.152;8.590;2024-03-08T08:53:00;2.30;24.90
10304;DHT22;5197;48.152;8.590;2024-03-08T08:55:26;2.30;24.90
10304;DHT22;5197;48.152;8.590;2024-03-08T08:57:54;2.30;25.10
10304;DHT22;5197;48.152;8.590;2024-03-08T09:00:21;2.30;24.80
10304;DHT22;5197;48.152;8.590;2024-03-08T09:02:50;2.40;24.60
10304;DHT22;5197;48.152;8.590;2024-03-08T09:05:18;2.40;24.30
10304;DHT22;5197;48.152;8.590;2024-03-08T09:07:44;2.50;22.90
10304;DHT22;5197;48.152;8.590;2024-03-08T09:10:12;2.50;22.10
10304;DHT22;5197;48.152;8.590;2024-03-08T09:12:44;2.50;21.90
10304;DHT22;5197;48.152;8.590;2024-03-08T09:15:11;2.60;21.90
10304;DHT22;5197;48.152;8.590;2024-03-08T09:17:39;2.70;21.50
10304;DHT22;5197;48.152;8.590;2024-03-08T09:20:07;2.70;21.10
10304;DHT22;5197;48.152;8.590;2024-03-08T09:22:35;3.80;21.90
10304;DHT22;5197;48.152;8.590;2024-03-08T09:25:02;2.70;20.90
10304;DHT22;5197;48.152;8.590;2024-03-08T09:27:32;2.70;20.70
10304;DHT22;5197;48.152;8.590;2024-03-08T09:30:04;2.70;20.70
10304;DHT22;5197;48.152;8.590;2024-03-08T09:32:34;2.80;20.70
10304;DHT22;5197;48.152;8.590;2024-03-08T09:35:01;2.80;20.80
10304;DHT22;5197;48.152;8.590;2024-03-08T09:37:28;2.90;21.10
10304;DHT22;5197;48.152;8.590;2024-03-08T09:39:55;3.00;21.20
10304;DHT22;5197;48.152;8.590;2024-03-08T09:42:22;3.10;21.20
10304;DHT22;5197;48.152;8.590;2024-03-08T09:44:49;3.10;20.40
10304;DHT22;5197;48.152;8.590;2024-03-08T09:47:18;3.10;20.10
10304;DHT22;5197;48.152;8.590;2024-03-08T09:49:45;3.20;20.00
10304;DHT22;5197;48.152;8.590;2024-03-08T09:52:13;3.30;19.40
10304;DHT22;5197;48.152;8.590;2024-03-08T09:54:40;3.40;18.80
10304;DHT22;5197;48.152;8.590;2024-03-08T09:57:11;3.40;17.60
10304;DHT22;5197;48.152;8.590;2024-03-08T09:59:38;3.50;17.40
10304;DHT22;5197;48.152;8.590;2024-03-08T10:02:05;3.50;17.40
10304;DHT22;5197;48.152;8.590;2024-03-08T10:04:32;3.50;17.40
10304;DHT22;5197;48.152;8.590;2024-03-08T10:07:01;3.50;17.40
10304;DHT22;5197;48.152;8.590;2024-03-08T10:09:28;3.60;18.30
10304;DHT22;5197;48.152;8.590;2024-03-08T10:11:58;3.70;17.70
10304;DHT22;5197;48.152;8.590;2024-03-08T10:14:25;3.70;17.50
10304;DHT22;5197;48.152;8.590;2024-03-08T10:16:53;3.80;18.60
10304;DHT22;5197;48.152;8.590;2024-03-08T10:19:20;3.80;17.60
10304;DHT22;5197;48.152;8.590;2024-03-08T10:21:50;3.90;18.50
10304;DHT22;5197;48.152;8.590;2024-03-08T10:24:46;3.90;18.50
10304;DHT22;5197;48.152;8.590;2024-03-08T10:27:38;4.00;17.70
10304;DHT22;5197;48.152;8.590;2024-03-08T10:30:30;4.10;17.70
10304;DHT22;5197;48.152;8.590;2024-03-08T10:33:20;4.00;17.70
10304;DHT22;5197;48.152;8.590;2024-03-08T10:36:14;4.10;17.70
10304;DHT22;5197;48.152;8.590;2024-03-08T10:38:42;4.10;17.70
10304;DHT22;5197;48.152;8.590;2024-03-08T10:41:16;4.10;17.80
10304;DHT22;5197;48.152;8.590;2024-03-08T10:46:21;4.20;18.80
10304;DHT22;5197;48.152;8.590;2024-03-08T10:48:52;4.30;17.90
10304;DHT22;5197;48.152;8.590;2024-03-08T10:51:22;4.30;17.90
10304;DHT22;5197;48.152;8.590;2024-03-08T10:53:50;4.40;17.90
10304;DHT22;5197;48.152;8.590;2024-03-08T10:56:18;4.50;18.00
10304;DHT22;5197;48.152;8.590;2024-03-08T10:58:46;4.60;16.70
10304;DHT22;5197;48.152;8.590;2024-03-08T11:01:13;4.60;16.60
10304;DHT22;5197;48.152;8.590;2024-03-08T11:06:16;4.70;16.50
10304;DHT22;5197;48.152;8.590;2024-03-08T11:08:46;4.80;16.40
10304;DHT22;5197;48.152;8.590;2024-03-08T11:14:02;5.00;15.00
10304;DHT22;5197;48.152;8.590;2024-03-08T11:19:00;5.00;15.00
10304;DHT22;5197;48.152;8.590;2024-03-08T11:21:31;5.00;15.00
10304;DHT22;5197;48.152;8.590;2024-03-08T11:24:00;5.10;15.20
10304;DHT22;5197;48.152;8.590;2024-03-08T11:26:29;5.20;15.10
10304;DHT22;5197;48.152;8.590;2024-03-08T11:32:16;5.30;13.20
10304;DHT22;5197;48.152;8.590;2024-03-08T11:34:47;5.40;13.40
10304;DHT22;5197;48.152;8.590;2024-03-08T11:37:40;5.40;13.50
10304;DHT22;5197;48.152;8.590;2024-03-08T11:40:12;5.40;14.20
10304;DHT22;5197;48.152;8.590;2024-03-08T11:42:47;5.50;13.40
10304;DHT22;5197;48.152;8.590;2024-03-08T11:45:18;5.60;13.70
10304;DHT22;5197;48.152;8.590;2024-03-08T11:47:48;5.50;10.30
10304;DHT22;5197;48.152;8.590;2024-03-08T11:50:17;5.60;12.00
10304;DHT22;5197;48.152;8.590;2024-03-08T11:52:47;5.50;12.20
10304;DHT22;5197;48.152;8.590;2024-03-08T11:55:16;5.60;11.90
10304;DHT22;5197;48.152;8.590;2024-03-08T11:57:47;5.70;12.90
10304;DHT22;5197;48.152;8.590;2024-03-08T12:00:16;5.90;11.00
10304;DHT22;5197;48.152;8.590;2024-03-08T12:03:03;6.10;9.50
10304;DHT22;5197;48.152;8.590;2024-03-08T12:05:30;6.30;8.70
10304;DHT22;5197;48.152;8.590;2024-03-08T12:07:58;6.30;8.30
10304;DHT22;5197;48.152;8.590;2024-03-08T12:10:26;6.40;8.40
10304;DHT22;5197;48.152;8.590;2024-03-08T12:12:54;6.40;7.70
10304;DHT22;5197;48.152;8.590;2024-03-08T12:15:23;6.30;7.90
10304;DHT22;5197;48.152;8.590;2024-03-08T12:17:51;6.30;7.70
10304;DHT22;5197;48.152;8.590;2024-03-08T12:20:20;6.40;8.50
10304;DHT22;5197;48.152;8.590;2024-03-08T12:22:50;6.50;8.20
10304;DHT22;5197;48.152;8.590;2024-03-08T12:25:30;6.70;7.20
10304;DHT22;5197;48.152;8.590;2024-03-08T12:28:08;6.80;6.80
10304;DHT22;5197;48.152;8.590;2024-03-08T12:30:50;6.90;6.90
10304;DHT22;5197;48.152;8.590;2024-03-08T12:33:21;7.10;4.80
10304;DHT22;5197;48.152;8.590;2024-03-08T12:35:53;7.30;2.80
10304;DHT22;5197;48.152;8.590;2024-03-08T12:38:22;7.30;3.50
10304;DHT22;5197;48.152;8.590;2024-03-08T12:40:59;7.20;4.40
10304;DHT22;5197;48.152;8.590;2024-03-08T12:43:27;7.40;4.70
10304;DHT22;5197;48.152;8.590;2024-03-08T12:45:58;7.50;4.10
10304;DHT22;5197;48.152;8.590;2024-03-08T12:48:25;7.70;3.00
10304;DHT22;5197;48.152;8.590;2024-03-08T12:50:52;7.70;3.10
10304;DHT22;5197;48.152;8.590;2024-03-08T12:53:21;7.70;3.50
10304;DHT22;5197;48.152;8.590;2024-03-08T12:55:49;7.70;4.60
10304;DHT22;5197;48.152;8.590;2024-03-08T12:58:17;7.70;4.90
10304;DHT22;5197;48.152;8.590;2024-03-08T13:00:44;7.70;4.00
10304;DHT22;5197;48.152;8.590;2024-03-08T13:03:11;7.70;4.60
10304;DHT22;5197;48.152;8.590;2024-03-08T13:05:38;7.80;4.00
10304;DHT22;5197;48.152;8.590;2024-03-08T13:08:10;7.90;3.90
10304;DHT22;5197;48.152;8.590;2024-03-08T13:10:40;8.00;3.90
10304;DHT22;5197;48.152;8.590;2024-03-08T13:13:10;8.00;4.10
10304;DHT22;5197;48.152;8.590;2024-03-08T13:15:41;8.10;4.20
10304;DHT22;5197;48.152;8.590;2024-03-08T13:18:31;8.10;4.90
10304;DHT22;5197;48.152;8.590;2024-03-08T13:21:24;8.20;3.90
10304;DHT22;5197;48.152;8.590;2024-03-08T13:23:51;8.20;4.60
10304;DHT22;5197;48.152;8.590;2024-03-08T13:26:20;8.20;3.70
10304;DHT22;5197;48.152;8.590;2024-03-08T13:28:48;8.20;4.20
10304;DHT22;5197;48.152;8.590;2024-03-08T13:31:21;8.40;3.80
10304;DHT22;5197;48.152;8.590;2024-03-08T13:33:48;8.40;2.80
10304;DHT22;5197;48.152;8.590;2024-03-08T13:36:16;8.50;2.90
10304;DHT22;5197;48.152;8.590;2024-03-08T13:38:44;8.60;3.40
10304;DHT22;5197;48.152;8.590;2024-03-08T13:41:12;8.80;1.90
10304;DHT22;5197;48.152;8.590;2024-03-08T13:43:42;8.80;1.00
10304;DHT22;5197;48.152;8.590;2024-03-08T13:46:09;8.80;1.50
10304;DHT22;5197;48.152;8.590;2024-03-08T13:48:37;9.30;1.00
10304;DHT22;5197;48.152;8.590;2024-03-08T13:51:07;9.10;1.00
10304;DHT22;5197;48.152;8.590;2024-03-08T13:53:42;9.10;1.00
10304;DHT22;5197;48.152;8.590;2024-03-08T13:56:09;9.10;1.00
10304;DHT22;5197;48.152;8.590;2024-03-08T13:58:37;9.10;1.00
10304;DHT22;5197;48.152;8.590;2024-03-08T14:01:06;9.20;1.00
10304;DHT22;5197;48.152;8.590;2024-03-08T14:03:38;9.20;1.00
10304;DHT22;5197;48.152;8.590;2024-03-08T14:06:09;9.10;1.00
10304;DHT22;5197;48.152;8.590;2024-03-08T14:08:36;9.10;1.00
10304;DHT22;5197;48.152;8.590;2024-03-08T14:11:05;9.30;1.00
10304;DHT22;5197;48.152;8.590;2024-03-08T14:13:43;9.40;1.00
10304;DHT22;5197;48.152;8.590;2024-03-08T14:16:13;9.50;1.00
10304;DHT22;5197;48.152;8.590;2024-03-08T14:18:42;9.50;1.00
10304;DHT22;5197;48.152;8.590;2024-03-08T14:21:09;9.60;1.00
10304;DHT22;5197;48.152;8.590;2024-03-08T14:23:37;9.70;1.00
10304;DHT22;5197;48.152;8.590;2024-03-08T14:26:04;9.80;1.00
10304;DHT22;5197;48.152;8.590;2024-03-08T14:28:34;9.90;1.00
10304;DHT22;5197;48.152;8.590;2024-03-08T14:31:01;9.90;1.00
10304;DHT22;5197;48.152;8.590;2024-03-08T14:33:33;10.50;1.00
10304;DHT22;5197;48.152;8.590;2024-03-08T14:36:00;9.80;1.00
10304;DHT22;5197;48.152;8.590;2024-03-08T14:38:28;9.80;1.00
10304;DHT22;5197;48.152;8.590;2024-03-08T14:40:55;9.80;1.00
10304;DHT22;5197;48.152;8.590;2024-03-08T14:43:22;9.80;1.00
10304;DHT22;5197;48.152;8.590;2024-03-08T14:45:50;9.80;1.00
10304;DHT22;5197;48.152;8.590;2024-03-08T14:48:17;9.90;1.00
10304;DHT22;5197;48.152;8.590;2024-03-08T14:50:45;9.90;1.00
10304;DHT22;5197;48.152;8.590;2024-03-08T14:53:14;10.00;1.00
10304;DHT22;5197;48.152;8.590;2024-03-08T14:55:43;10.10;1.00
10304;DHT22;5197;48.152;8.590;2024-03-08T14:58:13;10.20;1.00
10304;DHT22;5197;48.152;8.590;2024-03-08T15:00:41;10.00;1.00
10304;DHT22;5197;48.152;8.590;2024-03-08T15:03:08;10.10;1.00
10304;DHT22;5197;48.152;8.590;2024-03-08T15:05:39;10.10;1.00
10304;DHT22;5197;48.152;8.590;2024-03-08T15:08:09;10.20;1.00
10304;DHT22;5197;48.152;8.590;2024-03-08T15:10:38;10.30;1.00
10304;DHT22;5197;48.152;8.590;2024-03-08T15:13:08;10.40;1.00
10304;DHT22;5197;48.152;8.590;2024-03-08T15:15:42;10.40;1.00
10304;DHT22;5197;48.152;8.590;2024-03-08T15:18:12;10.30;1.00
10304;DHT22;5197;48.152;8.590;2024-03-08T15:20:39;10.40;1.00
10304;DHT22;5197;48.152;8.590;2024-03-08T15:23:06;10.40;1.00
10304;DHT22;5197;48.152;8.590;2024-03-08T15:25:36;10.50;1.00
10304;DHT22;5197;48.152;8.590;2024-03-08T15:28:05;10.50;1.00
10304;DHT22;5197;48.152;8.590;2024-03-08T15:31:03;10.60;1.00
10304;DHT22;5197;48.152;8.590;2024-03-08T15:33:34;10.60;1.00
10304;DHT22;5197;48.152;8.590;2024-03-08T15:36:01;10.60;1.00
10304;DHT22;5197;48.152;8.590;2024-03-08T15:38:36;10.50;1.00
10304;DHT22;5197;48.152;8.590;2024-03-08T15:41:06;10.50;1.00
10304;DHT22;5197;48.152;8.590;2024-03-08T15:43:37;10.40;1.00
10304;DHT22;5197;48.152;8.590;2024-03-08T15:46:04;10.30;1.00
10304;DHT22;5197;48.152;8.590;2024-03-08T15:48:32;10.20;1.00
10304;DHT22;5197;48.152;8.590;2024-03-08T15:50:59;10.10;1.00
10304;DHT22;5197;48.152;8.590;2024-03-08T15:53:29;9.90;1.00
10304;DHT22;5197;48.152;8.590;2024-03-08T15:55:58;10.00;1.00
10304;DHT22;5197;48.152;8.590;2024-03-08T15:58:26;9.90;1.00
10304;DHT22;5197;48.152;8.590;2024-03-08T16:00:52;9.80;1.00
10304;DHT22;5197;48.152;8.590;2024-03-08T16:03:20;9.70;1.00
10304;DHT22;5197;48.152;8.590;2024-03-08T16:05:47;9.70;1.00
10304;DHT22;5197;48.152;8.590;2024-03-08T16:08:18;9.60;1.00
10304;DHT22;5197;48.152;8.590;2024-03-08T16:10:48;9.50;1.00
10304;DHT22;5197;48.152;8.590;2024-03-08T16:13:17;10.00;1.00
10304;DHT22;5197;48.152;8.590;2024-03-08T16:15:44;9.30;1.00
10304;DHT22;5197;48.152;8.590;2024-03-08T16:18:14;9.20;1.00
10304;DHT22;5197;48.152;8.590;2024-03-08T16:20:42;9.10;1.00
10304;DHT22;5197;48.152;8.590;2024-03-08T16:23:13;9.10;1.00
10304;DHT22;5197;48.152;8.590;2024-03-08T16:25:44;9.00;1.00
10304;DHT22;5197;48.152;8.590;2024-03-08T16:28:11;8.90;1.00
10304;DHT22;5197;48.152;8.590;2024-03-08T16:30:43;8.80;1.00